Time;durP1;ratioP1;P1;durP2;ratioP2;P2;SDS_P1;SDS_P2;PMS_P1;PMS_P2;Temp;Humidity;BMP_temperature;BMP_pressure;BME280_temperature;BME280_humidity;BME280_pressure;Samples;Min_cycle;Max_cycle;Signal;HPM_P1;HPM_P2
2022/07/14 00:02:26;;;;;;;8.82;3.33;;;14.10;99.90;;;;;;5114826;28;20517;-77
2022/07/14 00:04:54;;;;;;;13.57;4.07;;;14.10;99.90;;;;;;5133224;28;20451;-77
2022/07/14 00:07:21;;;;;;;10.82;3.78;;;14.00;99.90;;;;;;5133064;28;20058;-77
2022/07/14 00:09:48;;;;;;;5.20;2.80;;;14.00;99.90;;;;;;5132661;28;20046;-78
2022/07/14 00:12:15;;;;;;;13.15;4.22;;;14.00;99.90;;;;;;5133530;28;20451;-77
2022/07/14 00:14:41;;;;;;;10.63;3.60;;;14.00;99.90;;;;;;5115003;28;20410;-77
2022/07/14 00:17:08;;;;;;;13.48;4.20;;;13.90;99.90;;;;;;5133686;28;20047;-76
2022/07/14 00:19:35;;;;;;;10.82;3.50;;;14.00;99.90;;;;;;5105226;28;20048;-76
2022/07/14 00:22:03;;;;;;;14.45;3.80;;;13.90;99.90;;;;;;5095483;28;20055;-75
2022/07/14 00:24:30;;;;;;;10.23;3.70;;;13.90;99.90;;;;;;5094202;28;20384;-76
2022/07/14 00:26:57;;;;;;;13.35;3.83;;;13.80;99.90;;;;;;5113406;28;20445;-77
2022/07/14 00:29:24;;;;;;;10.50;3.47;;;13.90;99.90;;;;;;5097951;28;20487;-77
2022/07/14 00:31:51;;;;;;;10.70;3.95;;;13.90;99.90;;;;;;5115794;28;20483;-77
2022/07/14 00:34:18;;;;;;;10.77;3.50;;;13.90;99.90;;;;;;5125081;27;20171;-77
2022/07/14 00:36:45;;;;;;;15.90;5.20;;;13.80;99.90;;;;;;5137143;27;20100;-77
2022/07/14 00:39:13;;;;;;;10.77;4.28;;;13.80;99.90;;;;;;5117979;27;20058;-78
2022/07/14 00:41:40;;;;;;;9.23;3.78;;;13.80;99.90;;;;;;5136069;27;20069;-77
2022/07/14 00:44:07;;;;;;;13.27;4.90;;;13.80;99.90;;;;;;5136011;27;20411;-77
2022/07/14 00:46:37;;;;;;;11.00;4.78;;;13.80;99.90;;;;;;5136613;27;20055;-77
2022/07/14 00:49:04;;;;;;;9.00;3.90;;;13.80;99.90;;;;;;5136556;27;20495;-78
2022/07/14 00:51:30;;;;;;;11.90;4.15;;;13.80;99.90;;;;;;5117629;27;20487;-77
2022/07/14 00:53:57;;;;;;;11.35;4.63;;;13.80;99.90;;;;;;5135994;27;20051;-78
2022/07/14 00:56:26;;;;;;;10.73;3.80;;;13.80;99.90;;;;;;5136348;27;20051;-77
2022/07/14 00:58:53;;;;;;;16.10;4.15;;;13.80;99.90;;;;;;5117637;27;20047;-76
2022/07/14 01:01:19;;;;;;;11.18;4.38;;;13.80;99.90;;;;;;5116957;27;20043;-76
2022/07/14 01:03:46;;;;;;;13.88;4.18;;;13.80;99.90;;;;;;5134346;27;20055;-76
2022/07/14 01:06:13;;;;;;;9.35;3.75;;;13.80;99.90;;;;;;5116867;27;20054;-76
2022/07/14 01:08:40;;;;;;;11.70;4.00;;;13.80;99.90;;;;;;5133923;27;20441;-78
2022/07/14 01:11:08;;;;;;;10.77;4.05;;;13.90;99.90;;;;;;5098241;27;20511;-78
2022/07/14 01:13:37;;;;;;;8.68;4.07;;;13.90;99.90;;;;;;5097030;28;20067;-77
2022/07/14 01:16:05;;;;;;;11.07;3.45;;;13.80;99.90;;;;;;5115425;28;20465;-77
2022/07/14 01:18:33;;;;;;;9.32;4.28;;;13.90;99.90;;;;;;5097394;28;20142;-76
2022/07/14 01:21:00;;;;;;;8.13;3.67;;;13.90;99.90;;;;;;5114643;28;20479;-76
2022/07/14 01:23:28;;;;;;;9.55;3.38;;;13.90;99.90;;;;;;5096766;28;20113;-77
2022/07/14 01:25:55;;;;;;;8.30;3.22;;;13.90;99.90;;;;;;5120000;27;20050;-78
2022/07/14 01:28:22;;;;;;;7.88;3.00;;;14.00;99.90;;;;;;5135310;27;20058;-77
2022/07/14 01:30:49;;;;;;;11.55;3.58;;;13.90;99.90;;;;;;5116827;27;20464;-77
2022/07/14 01:33:16;;;;;;;10.57;3.35;;;14.00;99.90;;;;;;5116795;27;20180;-78
2022/07/14 01:35:43;;;;;;;12.85;3.80;;;13.90;99.90;;;;;;5135523;27;20050;-77
2022/07/14 01:38:10;;;;;;;10.52;3.58;;;13.90;99.90;;;;;;5116547;27;20082;-78
2022/07/14 01:40:38;;;;;;;12.63;3.90;;;13.90;99.90;;;;;;5116311;27;20503;-77
2022/07/14 01:43:05;;;;;;;9.75;3.97;;;13.90;99.90;;;;;;5135546;27;20494;-76
2022/07/14 01:45:34;;;;;;;12.43;3.70;;;13.80;99.90;;;;;;5135076;27;20567;-76
2022/07/14 01:48:01;;;;;;;8.98;3.53;;;13.70;99.90;;;;;;5134812;27;20047;-77
2022/07/14 01:50:28;;;;;;;8.48;3.75;;;13.70;99.90;;;;;;5116433;27;20112;-76
2022/07/14 01:52:55;;;;;;;9.27;3.10;;;13.60;99.90;;;;;;5096539;28;20462;-76
2022/07/14 01:55:22;;;;;;;14.65;4.55;;;13.50;99.90;;;;;;5114301;28;20048;-76
2022/07/14 01:57:51;;;;;;;8.02;3.40;;;13.50;99.90;;;;;;5096328;28;20506;-76
2022/07/14 02:00:18;;;;;;;8.80;3.55;;;13.50;99.90;;;;;;5096120;28;20105;-77
2022/07/14 02:02:45;;;;;;;15.32;3.03;;;13.40;99.90;;;;;;5113574;28;20048;-74
2022/07/14 02:05:12;;;;;;;12.82;3.25;;;13.40;99.90;;;;;;5114026;28;20100;-76
2022/07/14 02:07:40;;;;;;;6.65;3.63;;;13.30;99.90;;;;;;5116511;27;20051;-76
2022/07/14 02:12:54;;;;;;;8.05;4.13;;;13.20;99.90;;;;;;5114055;28;20136;-76
2022/07/14 02:15:21;;;;;;;14.30;4.43;;;13.20;99.90;;;;;;5096094;28;20059;-75
2022/07/14 02:17:48;;;;;;;15.55;3.88;;;13.10;99.90;;;;;;5096268;28;20058;-76
2022/07/14 02:20:15;;;;;;;9.55;3.97;;;13.10;99.90;;;;;;5113899;28;20043;-77
2022/07/14 02:22:42;;;;;;;9.40;3.20;;;13.00;99.90;;;;;;5095766;28;20052;-77
2022/07/14 02:25:10;;;;;;;11.50;3.83;;;13.00;99.90;;;;;;5130229;27;20051;-77
2022/07/14 02:27:36;;;;;;;7.95;3.20;;;12.90;99.90;;;;;;5116272;27;20047;-76
2022/07/14 02:30:06;;;;;;;9.45;3.60;;;12.90;99.90;;;;;;5133531;27;20069;-77
2022/07/14 02:32:33;;;;;;;10.37;3.50;;;12.90;99.90;;;;;;5134478;27;20050;-77
2022/07/14 02:35:00;;;;;;;21.27;4.20;;;12.90;99.90;;;;;;5116103;27;20539;-77
2022/07/14 02:37:27;;;;;;;10.57;4.15;;;12.80;99.90;;;;;;5106557;28;20514;-77
2022/07/14 02:39:54;;;;;;;11.10;4.18;;;12.80;99.90;;;;;;5095294;28;20051;-76
2022/07/14 02:42:20;;;;;;;11.70;4.20;;;12.80;99.90;;;;;;5113987;28;20051;-78
2022/07/14 02:44:47;;;;;;;9.55;3.70;;;12.80;99.90;;;;;;5113332;28;20109;-78
2022/07/14 02:47:16;;;;;;;9.68;4.35;;;12.90;99.90;;;;;;5113761;28;20055;-77
2022/07/14 02:49:43;;;;;;;7.53;3.50;;;12.80;99.90;;;;;;5109763;27;20108;-77
2022/07/14 02:52:09;;;;;;;11.00;3.25;;;12.90;99.90;;;;;;5114551;27;20047;-77
2022/07/14 02:54:36;;;;;;;10.93;3.17;;;12.90;99.90;;;;;;5116494;27;20100;-77
2022/07/14 02:57:03;;;;;;;11.82;3.28;;;12.90;99.90;;;;;;5113724;28;20048;-76
2022/07/14 02:59:30;;;;;;;12.00;3.17;;;12.90;99.90;;;;;;5095160;28;20096;-76
2022/07/14 03:01:57;;;;;;;7.97;3.30;;;12.90;99.90;;;;;;5113704;28;20047;-77
2022/07/14 03:04:25;;;;;;;9.32;3.33;;;12.90;99.90;;;;;;5095627;28;20048;-76
2022/07/14 03:06:53;;;;;;;6.88;3.90;;;12.90;99.90;;;;;;5095397;28;20051;-80
2022/07/14 03:09:20;;;;;;;19.52;4.15;;;12.90;99.90;;;;;;5096461;28;20048;-79
2022/07/14 03:11:47;;;;;;;8.40;3.45;;;12.80;99.90;;;;;;5102162;28;20498;-78
2022/07/14 03:14:14;;;;;;;8.73;3.13;;;12.70;99.90;;;;;;5098699;28;20195;-78
2022/07/14 03:16:41;;;;;;;7.70;3.13;;;12.70;99.90;;;;;;5113988;28;20478;-77
2022/07/14 03:19:08;;;;;;;7.68;3.45;;;12.70;99.90;;;;;;5094647;28;20494;-77
2022/07/14 03:21:36;;;;;;;12.73;3.75;;;12.60;99.90;;;;;;5114244;28;20105;-77
2022/07/14 03:24:03;;;;;;;24.77;4.07;;;12.60;99.90;;;;;;5095769;28;20051;-77
2022/07/14 03:26:30;;;;;;;8.15;3.33;;;12.60;99.90;;;;;;5113593;28;20052;-79
2022/07/14 03:28:57;;;;;;;8.25;3.50;;;12.50;99.90;;;;;;5114048;28;20047;-77
2022/07/14 03:31:24;;;;;;;12.07;4.47;;;12.50;99.90;;;;;;5113649;28;20075;-81
2022/07/14 03:33:50;;;;;;;8.85;3.10;;;12.50;99.90;;;;;;5095208;28;20055;-80
2022/07/14 03:36:19;;;;;;;8.98;3.13;;;12.50;99.90;;;;;;5113244;28;20052;-80
2022/07/14 03:38:48;;;;;;;8.40;3.08;;;12.40;99.90;;;;;;5113006;28;20043;-76
2022/07/14 03:41:15;;;;;;;10.00;2.85;;;12.40;99.90;;;;;;5094361;28;20055;-77
2022/07/14 03:43:43;;;;;;;10.55;3.65;;;12.40;99.90;;;;;;5111295;28;20055;-76
2022/07/14 03:46:11;;;;;;;7.47;3.10;;;12.40;99.90;;;;;;5115030;28;20055;-76
2022/07/14 03:48:39;;;;;;;13.63;3.85;;;12.40;99.90;;;;;;5132727;28;20047;-77
2022/07/14 03:51:07;;;;;;;6.88;3.00;;;12.40;99.90;;;;;;5115006;28;20044;-78
2022/07/14 03:53:33;;;;;;;8.88;3.38;;;12.40;99.90;;;;;;5133789;28;20051;-78
2022/07/14 03:56:03;;;;;;;9.90;3.38;;;12.40;99.90;;;;;;5114614;28;20051;-76
2022/07/14 03:58:30;;;;;;;6.95;3.00;;;12.40;99.90;;;;;;5114998;28;20081;-77
2022/07/14 04:00:57;;;;;;;9.43;3.15;;;12.40;99.90;;;;;;5133096;27;20050;-79
2022/07/14 04:03:23;;;;;;;10.77;3.50;;;12.40;99.90;;;;;;5136227;27;20055;-79
2022/07/14 04:05:51;;;;;;;7.80;3.60;;;12.40;99.90;;;;;;5136978;27;20491;-75
2022/07/14 04:08:17;;;;;;;5.57;2.65;;;12.40;99.90;;;;;;5103026;28;20548;-75
2022/07/14 04:10:44;;;;;;;10.32;3.03;;;12.50;99.90;;;;;;5098473;28;20047;-74
2022/07/14 04:13:13;;;;;;;6.88;2.80;;;12.40;99.90;;;;;;5097787;28;20112;-74
2022/07/14 04:15:40;;;;;;;6.90;2.63;;;12.40;99.90;;;;;;5116124;28;20043;-75
2022/07/14 04:18:06;;;;;;;10.32;3.70;;;12.40;99.90;;;;;;5098327;28;20052;-78
2022/07/14 04:20:33;;;;;;;8.90;3.47;;;12.50;99.90;;;;;;5098781;28;20499;-79
2022/07/14 04:23:00;;;;;;;10.90;3.50;;;12.50;99.90;;;;;;5121199;27;20052;-78
2022/07/14 04:25:28;;;;;;;7.00;2.75;;;12.50;99.90;;;;;;5108266;28;20083;-78
2022/07/14 04:27:55;;;;;;;9.98;3.47;;;12.50;99.90;;;;;;5100840;28;20134;-76
2022/07/14 04:30:24;;;;;;;7.38;2.63;;;12.60;99.90;;;;;;5097524;28;20100;-76
2022/07/14 04:32:51;;;;;;;8.55;3.28;;;12.60;99.90;;;;;;5097820;28;20139;-77
2022/07/14 04:35:17;;;;;;;9.90;3.40;;;12.60;99.90;;;;;;5098482;28;20055;-77
2022/07/14 04:37:44;;;;;;;9.18;2.92;;;12.60;99.90;;;;;;5112920;27;20096;-77
2022/07/14 04:40:12;;;;;;;12.60;2.80;;;12.70;99.90;;;;;;5108813;27;20051;-77
2022/07/14 04:42:38;;;;;;;14.27;3.13;;;13.00;99.90;;;;;;5125658;27;20050;-79
2022/07/14 04:45:13;;;;;;;7.70;3.05;;;13.10;99.90;;;;;;5129020;27;20550;-79
2022/07/14 04:47:42;;;;;;;9.07;3.90;;;13.30;99.90;;;;;;5113965;27;20063;-80
2022/07/14 04:52:54;;;;;;;10.75;3.47;;;13.60;99.90;;;;;;5111467;27;20112;-80
2022/07/14 04:55:20;;;;;;;10.73;2.65;;;13.60;99.90;;;;;;5113114;27;20111;-78
2022/07/14 04:57:48;;;;;;;8.13;2.20;;;13.80;99.90;;;;;;5114814;27;20547;-79
2022/07/14 05:00:15;;;;;;;8.27;2.38;;;13.90;99.90;;;;;;5116786;27;20039;-79
2022/07/14 05:02:46;;;;;;;14.80;2.70;;;14.10;99.90;;;;;;5132541;27;20043;-79
2022/07/14 05:05:13;;;;;;;8.23;2.88;;;14.10;99.90;;;;;;5110536;27;20436;-78
2022/07/14 05:07:40;;;;;;;7.13;2.75;;;14.30;99.90;;;;;;5111953;27;20383;-78
2022/07/14 05:10:08;;;;;;;12.05;2.53;;;14.40;99.90;;;;;;5115136;27;20043;-78
2022/07/14 05:12:35;;;;;;;7.78;2.05;;;14.40;99.90;;;;;;5116352;27;20440;-77
2022/07/14 05:15:02;;;;;;;5.78;2.90;;;14.60;99.90;;;;;;5114417;27;20054;-77
2022/07/14 05:17:29;;;;;;;8.38;2.42;;;14.70;99.90;;;;;;5129379;27;20475;-78
2022/07/14 05:19:57;;;;;;;8.20;2.35;;;14.80;99.90;;;;;;5128876;27;20047;-80
2022/07/14 05:22:25;;;;;;;7.53;2.47;;;14.90;99.90;;;;;;5109806;27;20043;-77
2022/07/14 05:24:52;;;;;;;8.13;2.80;;;15.10;99.90;;;;;;5131113;27;20058;-78
2022/07/14 05:27:19;;;;;;;14.15;2.55;;;15.40;99.90;;;;;;5114204;27;20047;-78
2022/07/14 05:29:46;;;;;;;4.75;2.08;;;15.40;99.90;;;;;;5111554;27;20495;-78
2022/07/14 05:32:13;;;;;;;6.72;2.35;;;15.70;99.90;;;;;;5133037;27;20418;-76
2022/07/14 05:34:44;;;;;;;6.82;2.08;;;15.80;99.90;;;;;;5111206;27;20487;-76
2022/07/14 05:37:12;;;;;;;11.38;2.17;;;16.00;99.90;;;;;;5116268;27;20046;-77
2022/07/14 05:39:40;;;;;;;8.20;2.10;;;16.20;99.90;;;;;;5116525;27;20459;-77
2022/07/14 05:42:06;;;;;;;12.48;3.03;;;16.40;99.90;;;;;;5116919;27;20486;-78
2022/07/14 05:44:35;;;;;;;9.82;2.53;;;16.60;99.90;;;;;;5130315;27;20051;-78
2022/07/14 05:47:02;;;;;;;12.38;2.67;;;16.80;99.90;;;;;;5107803;28;20822;-77
2022/07/14 05:49:29;;;;;;;9.80;2.10;;;17.00;99.90;;;;;;5109145;28;20047;-77
2022/07/14 05:51:56;;;;;;;7.50;2.10;;;17.20;99.90;;;;;;5099548;28;20097;-75
2022/07/14 05:54:24;;;;;;;8.65;2.30;;;17.40;99.90;;;;;;5069879;28;20067;-76
2022/07/14 05:56:51;;;;;;;9.63;2.33;;;17.40;99.90;;;;;;5095221;28;20055;-76
2022/07/14 05:59:18;;;;;;;8.07;2.03;;;17.40;99.90;;;;;;5098633;28;20044;-75
2022/07/14 06:01:45;;;;;;;9.93;2.03;;;17.50;99.90;;;;;;5107850;28;20114;-76
2022/07/14 06:04:12;;;;;;;10.00;1.85;;;17.70;99.90;;;;;;5105295;28;20437;-76
2022/07/14 06:06:39;;;;;;;6.78;1.80;;;17.80;99.90;;;;;;5105752;28;20104;-76
2022/07/14 06:09:06;;;;;;;8.85;1.40;;;17.90;99.90;;;;;;5108599;28;20051;-76
2022/07/14 06:11:36;;;;;;;10.57;2.33;;;18.00;99.90;;;;;;5109578;28;20044;-76
2022/07/14 06:14:04;;;;;;;8.20;2.00;;;18.10;99.90;;;;;;5105250;28;20051;-76
2022/07/14 06:16:31;;;;;;;4.07;1.33;;;18.20;99.90;;;;;;5103327;28;20138;-73
2022/07/14 06:18:58;;;;;;;8.25;2.17;;;18.30;99.90;;;;;;5102662;28;20048;-75
2022/07/14 06:21:25;;;;;;;6.00;2.03;;;18.30;99.90;;;;;;5107561;28;20057;-76
2022/07/14 06:23:52;;;;;;;9.90;2.15;;;18.30;99.90;;;;;;5101028;28;20044;-75
2022/07/14 06:26:19;;;;;;;5.68;1.63;;;18.30;99.90;;;;;;5104472;28;20089;-76
2022/07/14 06:28:47;;;;;;;8.95;1.88;;;18.20;99.90;;;;;;5106439;28;20491;-76
2022/07/14 06:31:14;;;;;;;4.70;1.27;;;18.30;99.90;;;;;;5103446;28;20082;-77
2022/07/14 06:33:41;;;;;;;8.52;1.83;;;18.40;99.90;;;;;;5108332;28;20060;-76
2022/07/14 06:36:09;;;;;;;7.57;1.70;;;18.40;99.90;;;;;;5104938;28;20063;-76
2022/07/14 06:38:35;;;;;;;7.47;1.90;;;18.40;99.90;;;;;;5104587;28;20054;-75
2022/07/14 06:41:02;;;;;;;6.72;2.10;;;18.70;99.90;;;;;;5110616;28;20051;-75
2022/07/14 06:43:29;;;;;;;4.47;1.10;;;18.90;99.90;;;;;;5108512;28;20560;-76
2022/07/14 06:45:58;;;;;;;3.47;1.10;;;19.20;99.90;;;;;;5109777;28;20491;-75
2022/07/14 06:48:24;;;;;;;4.68;1.42;;;19.20;99.90;;;;;;5106211;28;20410;-76
2022/07/14 06:50:51;;;;;;;6.40;1.60;;;19.30;99.90;;;;;;5109276;28;20100;-76
2022/07/14 06:53:18;;;;;;;4.82;1.73;;;19.50;99.90;;;;;;5102453;28;20089;-76
2022/07/14 06:55:45;;;;;;;3.25;1.00;;;19.60;99.90;;;;;;5108631;28;20047;-76
2022/07/14 06:58:12;;;;;;;5.53;1.70;;;19.70;99.90;;;;;;5106331;28;20502;-76
2022/07/14 07:00:39;;;;;;;7.40;1.60;;;19.80;99.90;;;;;;5109111;28;20066;-75
2022/07/14 07:03:11;;;;;;;4.40;1.30;;;19.90;99.90;;;;;;5110470;28;20089;-76
2022/07/14 07:08:23;;;;;;;6.60;1.10;;;20.50;99.90;;;;;;5109383;28;20054;-76
2022/07/14 07:10:50;;;;;;;5.63;1.20;;;20.60;99.90;;;;;;5109425;28;20054;-76
2022/07/14 07:13:17;;;;;;;4.10;1.38;;;21.20;99.90;;;;;;5105253;28;20043;-76
2022/07/14 07:15:44;;;;;;;3.30;1.55;;;21.90;99.90;;;;;;5109172;28;20052;-76
2022/07/14 07:18:12;;;;;;;5.55;1.00;;;22.10;99.90;;;;;;5110438;28;20043;-77
2022/07/14 07:20:39;;;;;;;5.53;1.10;;;22.20;99.90;;;;;;5106735;28;20093;-75
2022/07/14 07:23:06;;;;;;;11.55;1.70;;;22.40;99.90;;;;;;5108254;28;20515;-76
2022/07/14 07:25:33;;;;;;;4.60;1.15;;;22.80;99.90;;;;;;5106393;28;20449;-76
2022/07/14 07:28:00;;;;;;;5.13;1.08;;;22.50;99.90;;;;;;5111646;28;20379;-75
2022/07/14 07:30:28;;;;;;;3.45;1.00;;;22.30;99.90;;;;;;5106026;28;20634;-76
2022/07/14 07:32:55;;;;;;;2.42;0.80;;;22.10;99.90;;;;;;5102023;28;20526;-76
2022/07/14 07:35:24;;;;;;;3.95;0.82;;;22.10;99.50;;;;;;5105969;28;20105;-76
2022/07/14 07:37:50;;;;;;;3.70;0.73;;;22.70;98.60;;;;;;5109448;28;20044;-77
2022/07/14 07:40:18;;;;;;;4.95;1.13;;;22.80;98.20;;;;;;5112762;28;20407;-75
2022/07/14 07:42:45;;;;;;;2.70;0.80;;;22.50;98.20;;;;;;5114081;28;20104;-78
2022/07/14 07:45:14;;;;;;;3.00;0.90;;;22.30;98.20;;;;;;5115909;27;20066;-76
2022/07/14 07:47:41;;;;;;;4.43;0.80;;;22.60;98.40;;;;;;5116761;27;20130;-77
2022/07/14 07:50:10;;;;;;;3.13;1.02;;;22.50;97.90;;;;;;5112948;27;20104;-77
2022/07/14 07:52:38;;;;;;;4.15;0.80;;;22.60;97.70;;;;;;5112728;27;20517;-78
2022/07/14 07:55:09;;;;;;;2.08;0.73;;;22.50;97.30;;;;;;5135297;27;20061;-78
2022/07/14 07:57:36;;;;;;;5.53;1.02;;;22.80;97.30;;;;;;5115414;27;20064;-77
2022/07/14 08:00:04;;;;;;;5.35;1.00;;;23.30;97.30;;;;;;5130673;27;20091;-76
2022/07/14 08:02:31;;;;;;;3.03;0.75;;;23.80;96.50;;;;;;5112614;27;20043;-78
2022/07/14 08:04:58;;;;;;;3.58;0.82;;;23.80;95.70;;;;;;5132077;27;20043;-78
2022/07/14 08:07:25;;;;;;;4.00;1.00;;;23.90;95.00;;;;;;5129925;27;20051;-78
2022/07/14 08:09:53;;;;;;;1.90;0.70;;;24.00;94.70;;;;;;5113354;27;20107;-78
2022/07/14 08:12:20;;;;;;;6.55;1.05;;;24.40;94.10;;;;;;5117393;27;20047;-79
2022/07/14 08:14:50;;;;;;;2.92;1.05;;;24.70;93.30;;;;;;5113581;27;20047;-79
2022/07/14 08:17:17;;;;;;;4.00;1.00;;;24.70;92.60;;;;;;5128870;27;20383;-79
2022/07/14 08:19:44;;;;;;;4.25;0.80;;;24.50;92.60;;;;;;5133431;27;20051;-79
2022/07/14 08:22:12;;;;;;;3.40;0.95;;;24.40;93.00;;;;;;5132359;27;20096;-79
2022/07/14 08:24:39;;;;;;;5.60;0.90;;;24.20;92.50;;;;;;5128401;27;20054;-78
2022/07/14 08:27:08;;;;;;;2.88;1.20;;;24.20;92.40;;;;;;5134495;27;20567;-79
2022/07/14 08:29:34;;;;;;;3.35;0.70;;;24.60;92.20;;;;;;5131493;27;20051;-78
2022/07/14 08:32:01;;;;;;;3.97;1.08;;;25.00;91.70;;;;;;5126387;27;20047;-79
2022/07/14 08:34:28;;;;;;;6.13;1.05;;;25.20;91.30;;;;;;5134279;27;20126;-79
2022/07/14 08:36:55;;;;;;;4.82;1.10;;;25.30;90.90;;;;;;5115741;27;20091;-79
2022/07/14 08:39:22;;;;;;;12.40;1.13;;;25.20;90.90;;;;;;5108855;27;20047;-80
2022/07/14 08:41:50;;;;;;;4.43;0.90;;;24.90;90.70;;;;;;5130147;27;20044;-80
2022/07/14 08:44:19;;;;;;;3.03;1.10;;;24.80;90.90;;;;;;5112411;27;20059;-79
2022/07/14 08:46:46;;;;;;;1.63;0.63;;;24.70;90.40;;;;;;5131327;27;20055;-79
2022/07/14 08:49:14;;;;;;;3.53;1.08;;;24.60;90.60;;;;;;5133832;27;20043;-79
2022/07/14 08:51:43;;;;;;;2.00;0.70;;;24.70;90.60;;;;;;5114243;27;20052;-79
2022/07/14 08:54:10;;;;;;;1.75;0.93;;;24.60;90.80;;;;;;5132587;27;20087;-79
2022/07/14 08:56:38;;;;;;;3.95;0.82;;;24.40;90.60;;;;;;5126286;27;20043;-77
2022/07/14 08:59:05;;;;;;;2.00;0.80;;;24.40;90.90;;;;;;5129170;27;20119;-78
2022/07/14 09:01:34;;;;;;;3.88;0.95;;;24.30;91.20;;;;;;5129077;27;20383;-78
2022/07/14 09:04:01;;;;;;;4.65;0.80;;;24.70;91.20;;;;;;5111289;27;20040;-79
2022/07/14 09:06:50;;;;;;;2.22;0.93;;;25.20;90.70;;;;;;5130528;27;20045;-79
2022/07/14 09:09:20;;;;;;;7.35;1.50;;;25.90;89.70;;;;;;5133268;27;20047;-79
2022/07/14 09:11:54;;;;;;;3.03;1.27;;;26.20;89.90;;;;;;5115514;27;20055;-79
2022/07/14 09:14:22;;;;;;;3.67;0.70;;;26.20;87.90;;;;;;5127816;27;20104;-80
2022/07/14 09:16:51;;;;;;;9.50;1.70;;;26.20;87.70;;;;;;5115507;27;20104;-79
2022/07/14 09:19:19;;;;;;;6.20;1.00;;;26.30;86.10;;;;;;5112809;27;20044;-80
2022/07/14 09:21:47;;;;;;;2.75;0.63;;;25.80;85.80;;;;;;5128829;27;20073;-79
2022/07/14 09:24:15;;;;;;;5.85;0.90;;;25.70;86.20;;;;;;5129662;27;20388;-80
2022/07/14 09:26:43;;;;;;;3.00;0.85;;;25.50;86.20;;;;;;5114207;27;20413;-79
2022/07/14 09:29:17;;;;;;;3.88;1.17;;;25.40;85.90;;;;;;5129899;27;20409;-79
2022/07/14 09:31:44;;;;;;;6.75;1.10;;;25.50;85.60;;;;;;5129751;27;20043;-80
2022/07/14 09:34:26;;;;;;;7.55;1.30;;;25.80;86.30;;;;;;5130283;27;20668;-79
2022/07/14 09:37:09;;;;;;;13.23;2.08;;;26.60;85.60;;;;;;5128300;27;20047;-80
2022/07/14 09:39:36;;;;;;;10.27;2.10;;;26.70;84.10;;;;;;5133451;27;20422;-79
2022/07/14 09:42:03;;;;;;;10.63;2.03;;;27.30;83.70;;;;;;5131234;27;20043;-79
2022/07/14 09:44:31;;;;;;;6.13;0.80;;;27.50;82.70;;;;;;5097421;27;20047;-80
2022/07/14 09:46:58;;;;;;;5.35;1.13;;;27.80;82.30;;;;;;5107261;28;20047;-80
2022/07/14 09:49:28;;;;;;;3.65;0.98;;;27.90;82.00;;;;;;5107605;28;20108;-80
2022/07/14 09:51:58;;;;;;;6.93;1.50;;;27.70;81.60;;;;;;5108917;28;20083;-79
2022/07/14 09:54:50;;;;;;;2.67;0.70;;;27.70;81.70;;;;;;5111609;28;20073;-80
2022/07/14 09:57:26;;;;;;;5.05;0.77;;;27.80;80.60;;;;;;5087065;28;20040;-81
2022/07/14 09:59:56;;;;;;;11.88;1.83;;;27.80;79.30;;;;;;5100257;28;20046;-79
2022/07/14 10:02:26;;;;;;;13.50;8.77;;;27.60;81.10;;;;;;5110642;28;20488;-79
2022/07/14 10:04:56;;;;;;;14.55;8.55;;;27.30;81.80;;;;;;5114568;28;20047;-79
2022/07/14 10:07:24;;;;;;;;;;;27.00;81.60;;;;;;5110650;28;20119;-80
2022/07/14 10:09:56;;;;;;;3.92;1.08;;;26.60;80.50;;;;;;5109694;28;20279;-80
2022/07/14 10:12:25;;;;;;;2.15;0.75;;;26.70;81.60;;;;;;5106130;28;20051;-79
2022/07/14 10:14:54;;;;;;;3.25;0.70;;;27.00;81.10;;;;;;5106968;28;20052;-80
2022/07/14 10:17:21;;;;;;;3.90;0.70;;;27.10;81.00;;;;;;5106195;28;20503;-80
2022/07/14 10:19:49;;;;;;;22.58;14.32;;;26.90;81.00;;;;;;5112211;28;20194;-80
2022/07/14 10:22:20;;;;;;;30.70;20.70;;;26.90;81.40;;;;;;5105580;28;20043;-79
2022/07/14 10:24:48;;;;;;;37.05;29.00;;;26.90;80.40;;;;;;5107936;28;20055;-80
2022/07/14 10:27:18;;;;;;;22.17;17.25;;;26.80;80.80;;;;;;5114850;28;20510;-80
2022/07/14 10:29:48;;;;;;;6.10;2.92;;;26.70;79.90;;;;;;5117987;28;20048;-81
2022/07/14 10:32:26;;;;;;;6.43;1.45;;;26.80;79.90;;;;;;5121645;28;20124;-79
2022/07/14 10:35:04;;;;;;;4.43;1.10;;;27.00;78.00;;;;;;5114151;28;20122;-80
2022/07/14 10:37:51;;;;;;;3.92;0.93;;;27.60;79.10;;;;;;5114978;28;20040;-80
2022/07/14 10:40:26;;;;;;;15.82;2.22;;;27.90;76.60;;;;;;5103860;28;20052;-79
2022/07/14 10:43:04;;;;;;;7.97;0.90;;;27.50;76.60;;;;;;5106731;28;20039;-81
2022/07/14 10:45:31;;;;;;;32.35;2.90;;;26.90;77.10;;;;;;5103409;28;20112;-79
2022/07/14 10:47:58;;;;;;;20.90;2.10;;;26.50;78.30;;;;;;5109324;28;20403;-79
2022/07/14 10:50:26;;;;;;;14.85;1.63;;;26.20;79.20;;;;;;5104818;28;20483;-79
2022/07/14 10:53:04;;;;;;;3.10;0.68;;;25.90;79.40;;;;;;5118134;28;20461;-80
2022/07/14 10:55:40;;;;;;;6.25;0.80;;;25.70;78.70;;;;;;5113404;28;20044;-80
2022/07/14 10:58:27;;;;;;;5.15;0.73;;;25.30;79.40;;;;;;5108552;28;20454;-78
2022/07/14 11:00:59;;;;;;;5.88;1.00;;;25.00;80.30;;;;;;5099136;28;20430;-79
2022/07/14 11:03:29;;;;;;;24.95;2.75;;;24.50;81.50;;;;;;5103674;28;20047;-79
2022/07/14 11:06:22;;;;;;;7.88;1.10;;;24.50;81.50;;;;;;5107206;28;20069;-80
2022/07/14 11:09:41;;;;;;;5.43;0.98;;;24.30;82.60;;;;;;5105824;28;20109;-80
2022/07/14 11:12:11;;;;;;;5.07;1.23;;;24.40;82.50;;;;;;5106757;28;20040;-80
2022/07/14 11:14:41;;;;;;;178.38;21.70;;;24.30;82.90;;;;;;5105732;28;20062;-80
2022/07/14 11:17:08;;;;;;;305.65;38.58;;;24.40;83.00;;;;;;5107293;28;20083;-79
2022/07/14 11:19:37;;;;;;;123.53;15.02;;;24.50;83.00;;;;;;5107221;28;20059;-80
2022/07/14 11:22:20;;;;;;;66.13;8.83;;;24.50;82.70;;;;;;5107898;28;20051;-80
2022/07/14 11:24:50;;;;;;;86.32;12.93;;;24.80;83.40;;;;;;5107779;28;20048;-80
2022/07/14 11:27:32;;;;;;;9.38;1.55;;;24.80;83.00;;;;;;5111497;28;20047;-81
2022/07/14 11:30:31;;;;;;;7.47;1.15;;;25.20;82.70;;;;;;5109740;28;20443;-81
2022/07/14 11:33:04;;;;;;;41.85;5.25;;;25.70;81.30;;;;;;5106483;28;20058;-81
2022/07/14 11:38:38;;;;;;;6.82;1.08;;;27.60;77.20;;;;;;5105395;28;20051;-80
2022/07/14 11:41:10;;;;;;;11.93;2.10;;;28.50;78.60;;;;;;5109947;28;20135;-80
2022/07/14 11:43:53;;;;;;;6.75;0.80;;;29.30;77.50;;;;;;5107160;28;20051;-81
2022/07/14 11:46:21;;;;;;;5.47;1.10;;;29.70;72.30;;;;;;5108289;28;20445;-81
2022/07/14 11:48:52;;;;;;;7.10;1.35;;;29.60;73.70;;;;;;5108430;28;20040;-80
2022/07/14 11:51:22;;;;;;;9.23;1.73;;;29.50;73.30;;;;;;5108547;28;20457;-81
2022/07/14 11:53:55;;;;;;;18.75;2.70;;;29.40;73.90;;;;;;5109583;28;20441;-80
2022/07/14 11:56:23;;;;;;;5.05;0.93;;;29.00;71.80;;;;;;5108635;28;20051;-82
2022/07/14 11:58:53;;;;;;;10.55;1.60;;;28.40;72.70;;;;;;5107433;28;20062;-82
2022/07/14 12:01:21;;;;;;;4.20;0.85;;;28.20;73.70;;;;;;5108119;28;20052;-81
2022/07/14 12:03:49;;;;;;;2.75;0.77;;;28.10;74.10;;;;;;5106672;28;20052;-82
2022/07/14 12:06:16;;;;;;;2.15;0.77;;;28.10;74.30;;;;;;5106722;28;20123;-83
2022/07/14 12:08:44;;;;;;;5.68;1.15;;;27.80;74.30;;;;;;5107709;28;20082;-81
2022/07/14 12:11:13;;;;;;;6.72;1.52;;;27.80;74.80;;;;;;5108050;28;20499;-81
2022/07/14 12:13:53;;;;;;;3.20;0.83;;;28.00;75.60;;;;;;5106446;28;20044;-81
2022/07/14 12:16:22;;;;;;;5.72;1.23;;;27.90;76.10;;;;;;5113864;28;20418;-81
2022/07/14 12:18:52;;;;;;;5.60;1.38;;;27.90;76.90;;;;;;5117768;28;20048;-81
2022/07/14 12:21:33;;;;;;;8.40;1.40;;;27.70;76.70;;;;;;5114852;28;20130;-81
2022/07/14 12:24:00;;;;;;;5.18;1.20;;;27.40;76.80;;;;;;5110135;28;20096;-81
2022/07/14 12:26:27;;;;;;;5.45;1.08;;;27.30;77.30;;;;;;5112663;28;20052;-83
2022/07/14 12:28:56;;;;;;;9.85;1.10;;;27.00;77.10;;;;;;5112581;28;20060;-81
2022/07/14 12:31:25;;;;;;;19.47;2.83;;;26.60;77.40;;;;;;5111943;28;20070;-81
2022/07/14 12:33:57;;;;;;;8.77;2.17;;;26.70;78.10;;;;;;5108542;28;20046;-80
2022/07/14 12:36:30;;;;;;;14.32;2.00;;;27.20;78.30;;;;;;5112164;28;20062;-80
2022/07/14 12:38:59;;;;;;;5.50;1.10;;;27.20;76.40;;;;;;5115716;28;20054;-81
2022/07/14 12:41:27;;;;;;;2.95;0.73;;;27.00;75.70;;;;;;5112751;28;20050;-80
2022/07/14 12:43:57;;;;;;;8.30;1.33;;;26.50;76.10;;;;;;5111988;28;20048;-81
2022/07/14 12:46:26;;;;;;;3.28;1.10;;;26.00;76.60;;;;;;5109065;28;20058;-81
2022/07/14 12:49:03;;;;;;;4.40;0.90;;;25.50;77.10;;;;;;5108090;28;20092;-82
2022/07/14 12:51:40;;;;;;;1.92;0.60;;;25.30;77.80;;;;;;5112663;28;20047;-82
2022/07/14 12:54:10;;;;;;;3.47;0.90;;;25.00;77.90;;;;;;5116082;28;20458;-81
2022/07/14 12:56:46;;;;;;;6.70;1.63;;;24.80;78.00;;;;;;5113882;28;20126;-79
2022/07/14 12:59:16;;;;;;;5.55;1.20;;;24.60;78.30;;;;;;5106508;28;20388;-81
2022/07/14 13:01:52;;;;;;;3.15;0.80;;;24.50;78.10;;;;;;5124404;28;20048;-82
2022/07/14 13:04:36;;;;;;;4.43;1.00;;;25.00;77.00;;;;;;5131796;28;20047;-81